sensor_id;sensor_type;location;lat;lon;timestamp;temperature;humidity
18839;DHT22;9548;56.920;14.804;2023-03-23T00:02:08;7.30;99.90
18839;DHT22;9548;56.920;14.804;2023-03-23T00:04:34;7.30;99.90
18839;DHT22;9548;56.920;14.804;2023-03-23T00:07:02;7.30;99.90
18839;DHT22;9548;56.920;14.804;2023-03-23T00:09:30;7.20;99.90
18839;DHT22;9548;56.920;14.804;2023-03-23T00:12:00;7.20;99.90
18839;DHT22;9548;56.920;14.804;2023-03-23T00:14:32;7.20;99.90
18839;DHT22;9548;56.920;14.804;2023-03-23T00:17:07;7.20;99.90
18839;DHT22;9548;56.920;14.804;2023-03-23T00:19:35;7.20;99.90
18839;DHT22;9548;56.920;14.804;2023-03-23T00:22:11;7.20;99.90
18839;DHT22;9548;56.920;14.804;2023-03-23T00:24:40;7.10;99.90
18839;DHT22;9548;56.920;14.804;2023-03-23T00:27:07;6.90;99.90
18839;DHT22;9548;56.920;14.804;2023-03-23T00:29:34;6.90;99.90
18839;DHT22;9548;56.920;14.804;2023-03-23T00:32:02;6.80;99.90
18839;DHT22;9548;56.920;14.804;2023-03-23T00:34:29;6.80;99.90
18839;DHT22;9548;56.920;14.804;2023-03-23T00:37:00;6.90;99.90
18839;DHT22;9548;56.920;14.804;2023-03-23T00:39:27;6.90;99.90
18839;DHT22;9548;56.920;14.804;2023-03-23T00:41:56;6.90;99.90
18839;DHT22;9548;56.920;14.804;2023-03-23T00:44:26;7.00;99.90
18839;DHT22;9548;56.920;14.804;2023-03-23T00:46:54;7.10;99.90
18839;DHT22;9548;56.920;14.804;2023-03-23T00:49:23;7.10;99.90
18839;DHT22;9548;56.920;14.804;2023-03-23T00:51:51;7.10;99.90
18839;DHT22;9548;56.920;14.804;2023-03-23T00:54:19;7.00;99.90
18839;DHT22;9548;56.920;14.804;2023-03-23T00:56:46;7.00;99.90
18839;DHT22;9548;56.920;14.804;2023-03-23T00:59:15;7.00;99.90
18839;DHT22;9548;56.920;14.804;2023-03-23T01:01:43;7.00;99.90
18839;DHT22;9548;56.920;14.804;2023-03-23T01:04:09;7.00;99.90
18839;DHT22;9548;56.920;14.804;2023-03-23T01:06:39;7.00;99.90
18839;DHT22;9548;56.920;14.804;2023-03-23T01:09:10;7.00;99.90
18839;DHT22;9548;56.920;14.804;2023-03-23T01:11:40;7.00;99.90
18839;DHT22;9548;56.920;14.804;2023-03-23T01:14:07;7.00;99.90
18839;DHT22;9548;56.920;14.804;2023-03-23T01:16:36;7.00;99.90
18839;DHT22;9548;56.920;14.804;2023-03-23T01:19:03;7.10;99.90
18839;DHT22;9548;56.920;14.804;2023-03-23T01:21:30;7.00;99.90
18839;DHT22;9548;56.920;14.804;2023-03-23T01:23:57;7.00;99.90
18839;DHT22;9548;56.920;14.804;2023-03-23T01:26:26;7.00;99.90
18839;DHT22;9548;56.920;14.804;2023-03-23T01:28:53;7.10;99.90
18839;DHT22;9548;56.920;14.804;2023-03-23T01:31:22;7.10;99.90
18839;DHT22;9548;56.920;14.804;2023-03-23T01:33:52;7.10;99.90
18839;DHT22;9548;56.920;14.804;2023-03-23T01:36:23;7.00;99.90
18839;DHT22;9548;56.920;14.804;2023-03-23T01:38:50;7.00;99.90
18839;DHT22;9548;56.920;14.804;2023-03-23T01:41:19;7.00;99.90
18839;DHT22;9548;56.920;14.804;2023-03-23T01:43:57;7.00;99.90
18839;DHT22;9548;56.920;14.804;2023-03-23T01:46:25;7.00;99.90
18839;DHT22;9548;56.920;14.804;2023-03-23T01:48:55;7.00;99.90
18839;DHT22;9548;56.920;14.804;2023-03-23T01:51:24;7.00;99.90
18839;DHT22;9548;56.920;14.804;2023-03-23T01:53:56;7.00;99.90
18839;DHT22;9548;56.920;14.804;2023-03-23T01:56:26;7.00;99.90
18839;DHT22;9548;56.920;14.804;2023-03-23T01:58:55;7.00;99.90
18839;DHT22;9548;56.920;14.804;2023-03-23T02:01:23;7.00;99.90
18839;DHT22;9548;56.920;14.804;2023-03-23T02:03:54;7.00;99.90
18839;DHT22;9548;56.920;14.804;2023-03-23T02:06:23;7.10;99.90
18839;DHT22;9548;56.920;14.804;2023-03-23T02:08:51;7.10;99.90
18839;DHT22;9548;56.920;14.804;2023-03-23T02:11:20;7.10;99.90
18839;DHT22;9548;56.920;14.804;2023-03-23T02:13:48;7.00;99.90
18839;DHT22;9548;56.920;14.804;2023-03-23T02:16:21;7.10;99.90
18839;DHT22;9548;56.920;14.804;2023-03-23T02:18:58;7.10;99.90
18839;DHT22;9548;56.920;14.804;2023-03-23T02:21:57;7.10;99.90
18839;DHT22;9548;56.920;14.804;2023-03-23T02:24:52;7.10;99.90
18839;DHT22;9548;56.920;14.804;2023-03-23T02:30:35;7.20;99.90
18839;DHT22;9548;56.920;14.804;2023-03-23T02:33:28;7.10;99.90
18839;DHT22;9548;56.920;14.804;2023-03-23T02:35:58;7.20;99.90
18839;DHT22;9548;56.920;14.804;2023-03-23T02:38:30;7.20;99.90
18839;DHT22;9548;56.920;14.804;2023-03-23T02:41:00;7.20;99.90
18839;DHT22;9548;56.920;14.804;2023-03-23T02:43:31;7.10;99.90
18839;DHT22;9548;56.920;14.804;2023-03-23T02:46:05;7.10;99.90
18839;DHT22;9548;56.920;14.804;2023-03-23T02:48:36;7.20;99.90
18839;DHT22;9548;56.920;14.804;2023-03-23T02:51:06;7.10;99.90
18839;DHT22;9548;56.920;14.804;2023-03-23T02:53:36;7.10;99.90
18839;DHT22;9548;56.920;14.804;2023-03-23T02:56:04;7.00;99.90
18839;DHT22;9548;56.920;14.804;2023-03-23T02:58:33;7.00;99.90
18839;DHT22;9548;56.920;14.804;2023-03-23T03:01:15;7.10;99.90
18839;DHT22;9548;56.920;14.804;2023-03-23T03:03:44;7.10;99.90
18839;DHT22;9548;56.920;14.804;2023-03-23T03:06:18;7.20;99.90
18839;DHT22;9548;56.920;14.804;2023-03-23T03:08:52;7.20;99.90
18839;DHT22;9548;56.920;14.804;2023-03-23T03:11:21;7.20;99.90
18839;DHT22;9548;56.920;14.804;2023-03-23T03:13:55;7.20;99.90
18839;DHT22;9548;56.920;14.804;2023-03-23T03:16:27;7.30;99.90
18839;DHT22;9548;56.920;14.804;2023-03-23T03:19:01;7.30;99.90
18839;DHT22;9548;56.920;14.804;2023-03-23T03:21:33;7.30;99.90
18839;DHT22;9548;56.920;14.804;2023-03-23T03:24:03;7.30;99.90
18839;DHT22;9548;56.920;14.804;2023-03-23T03:26:34;7.30;99.90
18839;DHT22;9548;56.920;14.804;2023-03-23T03:29:01;7.30;99.90
18839;DHT22;9548;56.920;14.804;2023-03-23T03:31:32;7.40;99.90
18839;DHT22;9548;56.920;14.804;2023-03-23T03:34:01;7.40;99.90
18839;DHT22;9548;56.920;14.804;2023-03-23T03:36:30;7.50;99.90
18839;DHT22;9548;56.920;14.804;2023-03-23T03:39:01;7.50;99.90
18839;DHT22;9548;56.920;14.804;2023-03-23T03:41:30;7.50;99.90
18839;DHT22;9548;56.920;14.804;2023-03-23T03:43:57;7.50;99.90
18839;DHT22;9548;56.920;14.804;2023-03-23T03:46:24;7.50;99.90
18839;DHT22;9548;56.920;14.804;2023-03-23T03:48:53;7.60;99.90
18839;DHT22;9548;56.920;14.804;2023-03-23T03:51:21;7.50;99.90
18839;DHT22;9548;56.920;14.804;2023-03-23T03:53:48;7.60;99.90
18839;DHT22;9548;56.920;14.804;2023-03-23T03:56:16;7.60;99.90
18839;DHT22;9548;56.920;14.804;2023-03-23T03:58:42;7.60;99.90
18839;DHT22;9548;56.920;14.804;2023-03-23T04:01:10;7.60;99.90
18839;DHT22;9548;56.920;14.804;2023-03-23T04:03:37;7.60;99.90
18839;DHT22;9548;56.920;14.804;2023-03-23T04:06:05;7.70;99.90
18839;DHT22;9548;56.920;14.804;2023-03-23T04:08:35;7.70;99.90
18839;DHT22;9548;56.920;14.804;2023-03-23T04:11:03;7.70;99.90
18839;DHT22;9548;56.920;14.804;2023-03-23T04:13:31;7.70;99.90
18839;DHT22;9548;56.920;14.804;2023-03-23T04:15:57;7.60;99.90
18839;DHT22;9548;56.920;14.804;2023-03-23T04:18:26;7.70;99.90
18839;DHT22;9548;56.920;14.804;2023-03-23T04:20:54;7.70;99.90
18839;DHT22;9548;56.920;14.804;2023-03-23T04:23:25;7.70;99.90
18839;DHT22;9548;56.920;14.804;2023-03-23T04:25:54;7.70;99.90
18839;DHT22;9548;56.920;14.804;2023-03-23T04:28:23;7.70;99.90
18839;DHT22;9548;56.920;14.804;2023-03-23T04:30:51;7.80;99.90
18839;DHT22;9548;56.920;14.804;2023-03-23T04:33:20;7.70;99.90
18839;DHT22;9548;56.920;14.804;2023-03-23T04:35:47;7.70;99.90
18839;DHT22;9548;56.920;14.804;2023-03-23T04:38:15;7.80;99.90
18839;DHT22;9548;56.920;14.804;2023-03-23T04:40:46;7.80;99.90
18839;DHT22;9548;56.920;14.804;2023-03-23T04:43:14;7.80;99.90
18839;DHT22;9548;56.920;14.804;2023-03-23T04:45:41;7.80;99.90
18839;DHT22;9548;56.920;14.804;2023-03-23T04:48:11;7.80;99.90
18839;DHT22;9548;56.920;14.804;2023-03-23T04:50:39;7.80;99.90
18839;DHT22;9548;56.920;14.804;2023-03-23T04:53:06;7.80;99.90
18839;DHT22;9548;56.920;14.804;2023-03-23T04:55:35;7.80;99.90
18839;DHT22;9548;56.920;14.804;2023-03-23T04:58:03;7.80;99.90
18839;DHT22;9548;56.920;14.804;2023-03-23T05:00:31;7.90;99.90
18839;DHT22;9548;56.920;14.804;2023-03-23T05:02:58;7.90;99.90
18839;DHT22;9548;56.920;14.804;2023-03-23T05:05:27;7.80;99.90
18839;DHT22;9548;56.920;14.804;2023-03-23T05:07:56;7.80;99.90
18839;DHT22;9548;56.920;14.804;2023-03-23T05:10:23;7.80;99.90
18839;DHT22;9548;56.920;14.804;2023-03-23T05:12:50;7.90;99.90
18839;DHT22;9548;56.920;14.804;2023-03-23T05:15:17;7.90;99.90
18839;DHT22;9548;56.920;14.804;2023-03-23T05:17:45;7.90;99.90
18839;DHT22;9548;56.920;14.804;2023-03-23T05:20:15;7.90;99.90
18839;DHT22;9548;56.920;14.804;2023-03-23T05:22:46;7.90;99.90
18839;DHT22;9548;56.920;14.804;2023-03-23T05:25:15;7.90;99.90
18839;DHT22;9548;56.920;14.804;2023-03-23T05:27:45;7.90;99.90
18839;DHT22;9548;56.920;14.804;2023-03-23T05:30:15;7.80;99.90
18839;DHT22;9548;56.920;14.804;2023-03-23T05:32:42;7.90;99.90
18839;DHT22;9548;56.920;14.804;2023-03-23T05:35:12;7.90;99.90
18839;DHT22;9548;56.920;14.804;2023-03-23T05:37:39;8.00;99.90
18839;DHT22;9548;56.920;14.804;2023-03-23T05:40:07;8.00;99.90
18839;DHT22;9548;56.920;14.804;2023-03-23T05:42:34;8.00;99.90
18839;DHT22;9548;56.920;14.804;2023-03-23T05:45:02;8.00;99.90
18839;DHT22;9548;56.920;14.804;2023-03-23T05:47:29;8.00;99.90
18839;DHT22;9548;56.920;14.804;2023-03-23T05:49:56;8.10;99.90
18839;DHT22;9548;56.920;14.804;2023-03-23T05:52:25;8.10;99.90
18839;DHT22;9548;56.920;14.804;2023-03-23T05:54:53;8.10;99.90
18839;DHT22;9548;56.920;14.804;2023-03-23T05:57:20;8.10;99.90
18839;DHT22;9548;56.920;14.804;2023-03-23T05:59:48;8.20;99.90
18839;DHT22;9548;56.920;14.804;2023-03-23T06:02:15;8.20;99.90
18839;DHT22;9548;56.920;14.804;2023-03-23T06:04:42;8.20;99.90
18839;DHT22;9548;56.920;14.804;2023-03-23T06:07:10;8.20;99.90
18839;DHT22;9548;56.920;14.804;2023-03-23T06:09:41;8.20;99.90
18839;DHT22;9548;56.920;14.804;2023-03-23T06:12:09;8.20;99.90
18839;DHT22;9548;56.920;14.804;2023-03-23T06:14:37;8.20;99.90
18839;DHT22;9548;56.920;14.804;2023-03-23T06:17:04;8.20;99.90
18839;DHT22;9548;56.920;14.804;2023-03-23T06:19:31;8.20;99.90
18839;DHT22;9548;56.920;14.804;2023-03-23T06:21:59;8.20;99.90
18839;DHT22;9548;56.920;14.804;2023-03-23T06:24:27;8.20;99.90
18839;DHT22;9548;56.920;14.804;2023-03-23T06:26:55;8.20;99.90
18839;DHT22;9548;56.920;14.804;2023-03-23T06:29:22;8.30;99.90
18839;DHT22;9548;56.920;14.804;2023-03-23T06:31:52;8.40;99.90
18839;DHT22;9548;56.920;14.804;2023-03-23T06:34:19;8.30;99.90
18839;DHT22;9548;56.920;14.804;2023-03-23T06:36:46;8.40;99.90
18839;DHT22;9548;56.920;14.804;2023-03-23T06:39:13;8.40;99.90
18839;DHT22;9548;56.920;14.804;2023-03-23T06:41:41;8.40;99.90
18839;DHT22;9548;56.920;14.804;2023-03-23T06:44:09;8.40;99.90
18839;DHT22;9548;56.920;14.804;2023-03-23T06:46:38;8.40;99.90
18839;DHT22;9548;56.920;14.804;2023-03-23T06:49:06;8.40;99.90
18839;DHT22;9548;56.920;14.804;2023-03-23T06:51:33;8.40;99.90
18839;DHT22;9548;56.920;14.804;2023-03-23T06:53:59;8.50;99.90
18839;DHT22;9548;56.920;14.804;2023-03-23T06:56:26;8.50;99.90
18839;DHT22;9548;56.920;14.804;2023-03-23T06:58:54;8.60;99.90
18839;DHT22;9548;56.920;14.804;2023-03-23T07:01:23;8.60;99.90
18839;DHT22;9548;56.920;14.804;2023-03-23T07:03:49;8.60;99.90
18839;DHT22;9548;56.920;14.804;2023-03-23T07:06:17;8.60;99.90
18839;DHT22;9548;56.920;14.804;2023-03-23T07:08:44;8.60;99.90
18839;DHT22;9548;56.920;14.804;2023-03-23T07:11:11;8.70;99.90
18839;DHT22;9548;56.920;14.804;2023-03-23T07:13:38;8.70;99.90
18839;DHT22;9548;56.920;14.804;2023-03-23T07:16:07;8.70;99.90
18839;DHT22;9548;56.920;14.804;2023-03-23T07:18:36;8.80;99.90
18839;DHT22;9548;56.920;14.804;2023-03-23T07:21:03;8.80;99.90
18839;DHT22;9548;56.920;14.804;2023-03-23T07:23:30;8.80;99.90
18839;DHT22;9548;56.920;14.804;2023-03-23T07:25:57;8.90;99.90
18839;DHT22;9548;56.920;14.804;2023-03-23T07:28:24;8.90;99.90
18839;DHT22;9548;56.920;14.804;2023-03-23T07:30:51;8.80;99.90
18839;DHT22;9548;56.920;14.804;2023-03-23T07:33:18;8.80;99.90
18839;DHT22;9548;56.920;14.804;2023-03-23T07:35:47;8.80;99.90
18839;DHT22;9548;56.920;14.804;2023-03-23T07:38:14;8.80;99.90
18839;DHT22;9548;56.920;14.804;2023-03-23T07:40:41;8.70;99.90
18839;DHT22;9548;56.920;14.804;2023-03-23T07:43:08;8.70;99.90
18839;DHT22;9548;56.920;14.804;2023-03-23T07:45:35;8.70;99.90
18839;DHT22;9548;56.920;14.804;2023-03-23T07:48:02;8.70;99.90
18839;DHT22;9548;56.920;14.804;2023-03-23T07:50:29;8.70;99.90
18839;DHT22;9548;56.920;14.804;2023-03-23T07:52:59;8.70;99.90
18839;DHT22;9548;56.920;14.804;2023-03-23T07:55:26;8.70;99.90
18839;DHT22;9548;56.920;14.804;2023-03-23T07:57:54;8.70;99.90
18839;DHT22;9548;56.920;14.804;2023-03-23T08:00:22;8.70;99.90
18839;DHT22;9548;56.920;14.804;2023-03-23T08:02:51;8.70;99.90
18839;DHT22;9548;56.920;14.804;2023-03-23T08:05:19;8.60;99.90
18839;DHT22;9548;56.920;14.804;2023-03-23T08:07:48;8.70;99.90
18839;DHT22;9548;56.920;14.804;2023-03-23T08:10:19;8.60;99.90
18839;DHT22;9548;56.920;14.804;2023-03-23T08:12:50;8.60;99.90
18839;DHT22;9548;56.920;14.804;2023-03-23T08:15:18;8.60;99.90
18839;DHT22;9548;56.920;14.804;2023-03-23T08:17:47;8.60;99.90
18839;DHT22;9548;56.920;14.804;2023-03-23T08:20:14;8.60;99.90
18839;DHT22;9548;56.920;14.804;2023-03-23T08:22:44;8.60;99.90
18839;DHT22;9548;56.920;14.804;2023-03-23T08:25:13;8.50;99.90
18839;DHT22;9548;56.920;14.804;2023-03-23T08:27:44;8.60;99.90
18839;DHT22;9548;56.920;14.804;2023-03-23T08:30:13;8.60;99.90
18839;DHT22;9548;56.920;14.804;2023-03-23T08:32:40;8.60;99.90
18839;DHT22;9548;56.920;14.804;2023-03-23T08:35:08;8.70;99.90
18839;DHT22;9548;56.920;14.804;2023-03-23T08:37:36;8.70;99.90
18839;DHT22;9548;56.920;14.804;2023-03-23T08:40:05;8.70;99.90
18839;DHT22;9548;56.920;14.804;2023-03-23T08:42:35;8.70;99.90
18839;DHT22;9548;56.920;14.804;2023-03-23T08:45:04;8.70;99.90
18839;DHT22;9548;56.920;14.804;2023-03-23T08:47:32;8.70;99.90
18839;DHT22;9548;56.920;14.804;2023-03-23T08:49:59;8.70;99.90
18839;DHT22;9548;56.920;14.804;2023-03-23T08:52:27;8.70;99.90
18839;DHT22;9548;56.920;14.804;2023-03-23T08:54:55;8.70;99.90
18839;DHT22;9548;56.920;14.804;2023-03-23T08:57:22;8.70;99.90
18839;DHT22;9548;56.920;14.804;2023-03-23T08:59:49;8.70;99.90
18839;DHT22;9548;56.920;14.804;2023-03-23T09:02:18;8.80;99.90
18839;DHT22;9548;56.920;14.804;2023-03-23T09:04:45;8.80;99.90
18839;DHT22;9548;56.920;14.804;2023-03-23T09:07:12;8.90;99.90
18839;DHT22;9548;56.920;14.804;2023-03-23T09:09:40;8.90;99.90
18839;DHT22;9548;56.920;14.804;2023-03-23T09:12:08;8.80;99.90
18839;DHT22;9548;56.920;14.804;2023-03-23T09:14:35;8.70;99.90
18839;DHT22;9548;56.920;14.804;2023-03-23T09:17:03;8.70;99.90
18839;DHT22;9548;56.920;14.804;2023-03-23T09:19:33;8.70;99.90
18839;DHT22;9548;56.920;14.804;2023-03-23T09:22:00;8.60;99.90
18839;DHT22;9548;56.920;14.804;2023-03-23T09:24:28;8.60;99.90
18839;DHT22;9548;56.920;14.804;2023-03-23T09:26:55;8.70;99.90
18839;DHT22;9548;56.920;14.804;2023-03-23T09:29:24;8.90;99.90
18839;DHT22;9548;56.920;14.804;2023-03-23T09:31:52;9.00;99.90
18839;DHT22;9548;56.920;14.804;2023-03-23T09:34:19;9.10;99.90
18839;DHT22;9548;56.920;14.804;2023-03-23T09:36:48;9.10;99.90
18839;DHT22;9548;56.920;14.804;2023-03-23T09:39:15;9.20;99.90
18839;DHT22;9548;56.920;14.804;2023-03-23T09:42:02;9.30;99.90
18839;DHT22;9548;56.920;14.804;2023-03-23T09:44:38;9.30;99.90
18839;DHT22;9548;56.920;14.804;2023-03-23T09:47:11;9.50;99.90
18839;DHT22;9548;56.920;14.804;2023-03-23T09:49:43;9.50;99.90
18839;DHT22;9548;56.920;14.804;2023-03-23T09:52:14;9.70;99.90
18839;DHT22;9548;56.920;14.804;2023-03-23T09:54:43;9.70;99.90
18839;DHT22;9548;56.920;14.804;2023-03-23T09:57:15;9.70;99.90
18839;DHT22;9548;56.920;14.804;2023-03-23T09:59:51;9.60;99.90
18839;DHT22;9548;56.920;14.804;2023-03-23T10:02:26;9.50;99.90
18839;DHT22;9548;56.920;14.804;2023-03-23T10:04:57;9.40;99.90
18839;DHT22;9548;56.920;14.804;2023-03-23T10:07:27;9.30;99.90
18839;DHT22;9548;56.920;14.804;2023-03-23T10:09:56;9.20;99.90
18839;DHT22;9548;56.920;14.804;2023-03-23T10:12:29;9.10;99.90
18839;DHT22;9548;56.920;14.804;2023-03-23T10:15:10;9.10;99.90
18839;DHT22;9548;56.920;14.804;2023-03-23T10:17:43;9.00;99.90
18839;DHT22;9548;56.920;14.804;2023-03-23T10:20:24;9.00;99.90
18839;DHT22;9548;56.920;14.804;2023-03-23T10:23:00;9.00;99.90
18839;DHT22;9548;56.920;14.804;2023-03-23T10:25:31;9.10;99.90
18839;DHT22;9548;56.920;14.804;2023-03-23T10:28:08;9.20;99.90
18839;DHT22;9548;56.920;14.804;2023-03-23T10:30:37;9.30;99.90
18839;DHT22;9548;56.920;14.804;2023-03-23T10:33:11;9.30;99.90
18839;DHT22;9548;56.920;14.804;2023-03-23T10:35:45;9.30;99.90
18839;DHT22;9548;56.920;14.804;2023-03-23T10:38:19;9.30;99.90
18839;DHT22;9548;56.920;14.804;2023-03-23T10:40:51;9.40;99.90
18839;DHT22;9548;56.920;14.804;2023-03-23T10:43:19;9.50;99.90
18839;DHT22;9548;56.920;14.804;2023-03-23T10:45:54;9.50;99.90
18839;DHT22;9548;56.920;14.804;2023-03-23T10:48:25;9.50;99.90
18839;DHT22;9548;56.920;14.804;2023-03-23T10:50:56;9.50;99.90
18839;DHT22;9548;56.920;14.804;2023-03-23T10:53:30;9.50;99.90
18839;DHT22;9548;56.920;14.804;2023-03-23T10:55:59;9.50;99.90
18839;DHT22;9548;56.920;14.804;2023-03-23T10:58:28;9.60;99.90
18839;DHT22;9548;56.920;14.804;2023-03-23T11:00:56;9.50;99.90
18839;DHT22;9548;56.920;14.804;2023-03-23T11:03:27;9.30;99.90
18839;DHT22;9548;56.920;14.804;2023-03-23T11:06:00;9.30;99.90
18839;DHT22;9548;56.920;14.804;2023-03-23T11:08:34;9.30;99.90
18839;DHT22;9548;56.920;14.804;2023-03-23T11:11:09;9.20;99.90
18839;DHT22;9548;56.920;14.804;2023-03-23T11:13:40;9.30;99.90
18839;DHT22;9548;56.920;14.804;2023-03-23T11:16:09;9.30;99.90
18839;DHT22;9548;56.920;14.804;2023-03-23T11:18:39;9.20;99.90
18839;DHT22;9548;56.920;14.804;2023-03-23T11:21:08;9.10;99.90
18839;DHT22;9548;56.920;14.804;2023-03-23T11:23:40;9.10;99.90
18839;DHT22;9548;56.920;14.804;2023-03-23T11:26:14;9.10;99.90
18839;DHT22;9548;56.920;14.804;2023-03-23T11:28:45;9.10;99.90
18839;DHT22;9548;56.920;14.804;2023-03-23T11:31:13;9.30;99.90
18839;DHT22;9548;56.920;14.804;2023-03-23T11:33:47;9.50;99.90
18839;DHT22;9548;56.920;14.804;2023-03-23T11:36:14;9.70;99.90
18839;DHT22;9548;56.920;14.804;2023-03-23T11:38:44;9.80;99.90
18839;DHT22;9548;56.920;14.804;2023-03-23T11:41:12;9.80;99.90
18839;DHT22;9548;56.920;14.804;2023-03-23T11:43:45;9.70;99.90
18839;DHT22;9548;56.920;14.804;2023-03-23T11:46:21;9.50;99.90
18839;DHT22;9548;56.920;14.804;2023-03-23T11:48:53;9.60;99.90
18839;DHT22;9548;56.920;14.804;2023-03-23T11:51:29;9.70;99.90
18839;DHT22;9548;56.920;14.804;2023-03-23T11:54:15;9.70;99.90
18839;DHT22;9548;56.920;14.804;2023-03-23T11:56:44;9.70;99.90
18839;DHT22;9548;56.920;14.804;2023-03-23T11:59:13;9.60;99.90
18839;DHT22;9548;56.920;14.804;2023-03-23T12:01:47;9.60;99.90
18839;DHT22;9548;56.920;14.804;2023-03-23T12:07:18;9.60;99.90
18839;DHT22;9548;56.920;14.804;2023-03-23T12:09:55;9.50;99.90
18839;DHT22;9548;56.920;14.804;2023-03-23T12:12:35;9.50;99.90
18839;DHT22;9548;56.920;14.804;2023-03-23T12:15:15;9.40;99.90
18839;DHT22;9548;56.920;14.804;2023-03-23T12:17:51;9.30;99.90
18839;DHT22;9548;56.920;14.804;2023-03-23T12:20:28;9.30;99.90
18839;DHT22;9548;56.920;14.804;2023-03-23T12:23:07;9.40;99.90
18839;DHT22;9548;56.920;14.804;2023-03-23T12:31:51;9.70;99.90
18839;DHT22;9548;56.920;14.804;2023-03-23T12:34:30;9.70;99.90
18839;DHT22;9548;56.920;14.804;2023-03-23T12:37:08;9.80;99.90
18839;DHT22;9548;56.920;14.804;2023-03-23T12:40:07;9.90;99.90
18839;DHT22;9548;56.920;14.804;2023-03-23T12:42:44;10.10;99.90
18839;DHT22;9548;56.920;14.804;2023-03-23T12:45:21;10.10;99.90
18839;DHT22;9548;56.920;14.804;2023-03-23T12:47:56;10.00;99.90
18839;DHT22;9548;56.920;14.804;2023-03-23T12:50:28;9.80;99.90
18839;DHT22;9548;56.920;14.804;2023-03-23T12:53:03;9.70;99.90
18839;DHT22;9548;56.920;14.804;2023-03-23T12:55:34;9.90;99.90
18839;DHT22;9548;56.920;14.804;2023-03-23T12:58:05;10.00;99.90
18839;DHT22;9548;56.920;14.804;2023-03-23T13:00:48;10.00;99.90
18839;DHT22;9548;56.920;14.804;2023-03-23T13:03:21;10.00;99.90
18839;DHT22;9548;56.920;14.804;2023-03-23T13:05:52;9.80;99.90
18839;DHT22;9548;56.920;14.804;2023-03-23T13:08:23;9.60;99.90
18839;DHT22;9548;56.920;14.804;2023-03-23T13:10:55;9.50;99.90
18839;DHT22;9548;56.920;14.804;2023-03-23T13:13:39;9.40;99.90
18839;DHT22;9548;56.920;14.804;2023-03-23T13:16:11;9.40;99.90
18839;DHT22;9548;56.920;14.804;2023-03-23T13:18:47;9.30;99.90
18839;DHT22;9548;56.920;14.804;2023-03-23T13:21:20;9.30;99.90
18839;DHT22;9548;56.920;14.804;2023-03-23T13:23:52;9.30;99.90
18839;DHT22;9548;56.920;14.804;2023-03-23T13:26:22;9.50;99.90
18839;DHT22;9548;56.920;14.804;2023-03-23T13:28:55;9.90;99.90
18839;DHT22;9548;56.920;14.804;2023-03-23T13:31:26;10.00;99.90
18839;DHT22;9548;56.920;14.804;2023-03-23T13:34:01;9.90;99.90
18839;DHT22;9548;56.920;14.804;2023-03-23T13:36:30;9.90;99.90
18839;DHT22;9548;56.920;14.804;2023-03-23T13:39:00;10.00;99.90
18839;DHT22;9548;56.920;14.804;2023-03-23T13:41:27;10.00;99.90
18839;DHT22;9548;56.920;14.804;2023-03-23T13:44:05;10.00;99.90
18839;DHT22;9548;56.920;14.804;2023-03-23T13:46:34;10.10;99.90
18839;DHT22;9548;56.920;14.804;2023-03-23T13:49:18;10.20;99.90
18839;DHT22;9548;56.920;14.804;2023-03-23T13:51:59;10.20;99.90
18839;DHT22;9548;56.920;14.804;2023-03-23T13:54:32;10.70;99.90
18839;DHT22;9548;56.920;14.804;2023-03-23T13:57:24;11.60;99.90
18839;DHT22;9548;56.920;14.804;2023-03-23T13:59:57;13.80;99.90
18839;DHT22;9548;56.920;14.804;2023-03-23T14:02:35;14.20;99.90
18839;DHT22;9548;56.920;14.804;2023-03-23T14:05:34;13.40;99.90
18839;DHT22;9548;56.920;14.804;2023-03-23T14:08:10;12.40;99.90
18839;DHT22;9548;56.920;14.804;2023-03-23T14:10:40;11.80;99.90
18839;DHT22;9548;56.920;14.804;2023-03-23T14:13:16;11.30;99.90
18839;DHT22;9548;56.920;14.804;2023-03-23T14:15:45;10.80;99.90
18839;DHT22;9548;56.920;14.804;2023-03-23T14:18:24;10.40;99.90
18839;DHT22;9548;56.920;14.804;2023-03-23T14:20:52;10.20;99.90
18839;DHT22;9548;56.920;14.804;2023-03-23T14:23:19;10.00;99.90
18839;DHT22;9548;56.920;14.804;2023-03-23T14:25:55;9.90;99.90
18839;DHT22;9548;56.920;14.804;2023-03-23T14:28:22;9.80;99.90
18839;DHT22;9548;56.920;14.804;2023-03-23T14:30:52;9.70;99.90
18839;DHT22;9548;56.920;14.804;2023-03-23T14:33:25;9.70;99.90
18839;DHT22;9548;56.920;14.804;2023-03-23T14:35:52;9.70;99.90
18839;DHT22;9548;56.920;14.804;2023-03-23T14:38:21;9.70;99.90
18839;DHT22;9548;56.920;14.804;2023-03-23T14:40:52;9.70;99.90
18839;DHT22;9548;56.920;14.804;2023-03-23T14:43:21;9.70;99.90
18839;DHT22;9548;56.920;14.804;2023-03-23T14:45:52;9.70;99.90
18839;DHT22;9548;56.920;14.804;2023-03-23T14:48:20;9.50;99.90
18839;DHT22;9548;56.920;14.804;2023-03-23T14:50:55;9.50;99.90
18839;DHT22;9548;56.920;14.804;2023-03-23T14:53:23;9.50;99.90
18839;DHT22;9548;56.920;14.804;2023-03-23T14:55:52;9.50;99.90
18839;DHT22;9548;56.920;14.804;2023-03-23T14:58:22;9.50;99.90
18839;DHT22;9548;56.920;14.804;2023-03-23T15:00:54;9.50;99.90
18839;DHT22;9548;56.920;14.804;2023-03-23T15:03:22;9.40;99.90
18839;DHT22;9548;56.920;14.804;2023-03-23T15:05:54;9.30;99.90
18839;DHT22;9548;56.920;14.804;2023-03-23T15:08:25;9.30;99.90
18839;DHT22;9548;56.920;14.804;2023-03-23T15:11:05;9.30;99.90
18839;DHT22;9548;56.920;14.804;2023-03-23T15:13:34;9.20;99.90
18839;DHT22;9548;56.920;14.804;2023-03-23T15:16:03;9.30;99.90
18839;DHT22;9548;56.920;14.804;2023-03-23T15:18:34;9.30;99.90
18839;DHT22;9548;56.920;14.804;2023-03-23T15:21:11;9.30;99.90
18839;DHT22;9548;56.920;14.804;2023-03-23T15:23:44;9.30;99.90
18839;DHT22;9548;56.920;14.804;2023-03-23T15:26:25;9.20;99.90
18839;DHT22;9548;56.920;14.804;2023-03-23T15:29:01;9.20;99.90
18839;DHT22;9548;56.920;14.804;2023-03-23T15:31:28;9.20;99.90
18839;DHT22;9548;56.920;14.804;2023-03-23T15:33:58;9.10;99.90
18839;DHT22;9548;56.920;14.804;2023-03-23T15:36:31;9.10;99.90
18839;DHT22;9548;56.920;14.804;2023-03-23T15:38:58;9.00;99.90
18839;DHT22;9548;56.920;14.804;2023-03-23T15:41:27;9.00;99.90
18839;DHT22;9548;56.920;14.804;2023-03-23T15:43:56;9.00;99.90
18839;DHT22;9548;56.920;14.804;2023-03-23T15:46:25;9.00;99.90
18839;DHT22;9548;56.920;14.804;2023-03-23T15:49:04;9.00;99.90
18839;DHT22;9548;56.920;14.804;2023-03-23T15:51:33;9.10;99.90
18839;DHT22;9548;56.920;14.804;2023-03-23T15:54:01;9.00;99.90
18839;DHT22;9548;56.920;14.804;2023-03-23T15:56:28;9.00;99.90
18839;DHT22;9548;56.920;14.804;2023-03-23T15:58:57;9.00;99.90
18839;DHT22;9548;56.920;14.804;2023-03-23T16:01:27;9.00;99.90
18839;DHT22;9548;56.920;14.804;2023-03-23T16:03:56;9.00;99.90
18839;DHT22;9548;56.920;14.804;2023-03-23T16:06:25;9.00;99.90
18839;DHT22;9548;56.920;14.804;2023-03-23T16:08:54;8.90;99.90
18839;DHT22;9548;56.920;14.804;2023-03-23T16:11:22;8.90;99.90
18839;DHT22;9548;56.920;14.804;2023-03-23T16:13:50;8.90;99.90
18839;DHT22;9548;56.920;14.804;2023-03-23T16:16:19;8.90;99.90
18839;DHT22;9548;56.920;14.804;2023-03-23T16:18:47;8.90;99.90